Time;durP1;ratioP1;P1;durP2;ratioP2;P2;SDS_P1;SDS_P2;PMS_P1;PMS_P2;Temp;Humidity;BMP_temperature;BMP_pressure;BME280_temperature;BME280_humidity;BME280_pressure;Samples;Min_cycle;Max_cycle;Signal;HPM_P1;HPM_P2
2022/03/18 00:02:04;;;;;;;0.30;0.30;;;;;;;;;;4982280;28;20313;-87
2022/03/18 00:04:31;;;;;;;0.40;0.40;;;;;;;;;;4981485;28;20022;-85
2022/03/18 00:06:57;;;;;;;0.50;0.50;;;;;;;;;;4984307;28;20030;-83
2022/03/18 00:09:23;;;;;;;1.17;1.17;;;;;;;;;;4980680;28;20125;-82
2022/03/18 00:11:49;;;;;;;0.85;0.85;;;;;;;;;;4982555;28;20392;-84
2022/03/18 00:14:15;;;;;;;0.30;0.30;;;;;;;;;;4984086;28;20030;-85
2022/03/18 00:16:41;;;;;;;0.30;0.30;;;;;;;;;;4984496;28;20030;-85
2022/03/18 00:19:07;;;;;;;0.60;0.60;;;;;;;;;;4984074;28;20038;-84
2022/03/18 00:21:34;;;;;;;0.40;0.40;;;;;;;;;;4983777;28;20042;-83
2022/03/18 00:24:01;;;;;;;0.40;0.40;;;;;;;;;;4983679;28;20026;-83
2022/03/18 00:26:27;;;;;;;0.40;0.40;;;;;;;;;;4985401;28;20034;-89
2022/03/18 00:28:53;;;;;;;0.60;0.60;;;;;;;;;;4983395;28;20035;-90
2022/03/18 00:31:19;;;;;;;0.50;0.50;;;;;;;;;;4988402;28;20034;-89
2022/03/18 00:33:45;;;;;;;1.37;1.37;;;;;;;;;;4980731;28;20611;-84
2022/03/18 00:36:11;;;;;;;1.15;1.15;;;;;;;;;;4982109;28;20516;-83
2022/03/18 00:38:39;;;;;;;0.60;0.60;;;;;;;;;;4982565;28;20106;-83
2022/03/18 00:41:05;;;;;;;0.50;0.50;;;;;;;;;;4980623;28;20092;-83
2022/03/18 00:43:31;;;;;;;0.57;0.57;;;;;;;;;;4982658;28;20034;-83
2022/03/18 00:45:57;;;;;;;0.60;0.60;;;;;;;;;;4979833;28;20192;-83
2022/03/18 00:53:53;;;;;;;0.60;0.60;;;;;;;;;;4981152;28;20092;-82
2022/03/18 00:56:20;;;;;;;0.50;0.50;;;;;;;;;;4981159;28;20129;-82
2022/03/18 00:58:46;;;;;;;1.10;1.10;;;;;;;;;;4980265;28;20046;-83
2022/03/18 01:01:12;;;;;;;0.53;0.53;;;;;;;;;;4975722;28;20105;-82
2022/03/18 01:03:38;;;;;;;0.47;0.47;;;;;;;;;;4980325;28;20277;-82
2022/03/18 01:06:04;;;;;;;0.50;0.50;;;;;;;;;;4982275;28;20042;-82
2022/03/18 01:08:30;;;;;;;0.60;0.60;;;;;;;;;;4983299;28;20121;-82
2022/03/18 01:10:57;;;;;;;0.50;0.50;;;;;;;;;;4982326;28;20284;-84
2022/03/18 01:13:23;;;;;;;0.50;0.50;;;;;;;;;;4980853;28;20304;-83
2022/03/18 01:15:50;;;;;;;0.50;0.50;;;;;;;;;;4982529;28;20034;-83
2022/03/18 01:18:16;;;;;;;0.50;0.50;;;;;;;;;;4982036;28;20962;-83
2022/03/18 01:20:42;;;;;;;0.50;0.50;;;;;;;;;;4980762;28;20304;-83
2022/03/18 01:23:08;;;;;;;0.50;0.50;;;;;;;;;;4982998;28;20042;-84
2022/03/18 01:25:35;;;;;;;1.20;1.20;;;;;;;;;;4980218;28;20130;-82
2022/03/18 01:28:01;;;;;;;;;;;;;;;;;;4980169;28;20030;-82
2022/03/18 01:30:29;;;;;;;0.65;0.65;;;;;;;;;;4981684;28;20366;-82
2022/03/18 01:32:55;;;;;;;0.65;0.65;;;;;;;;;;4980236;28;20026;-83
2022/03/18 01:35:21;;;;;;;0.70;0.70;;;;;;;;;;4983605;28;20077;-82
2022/03/18 01:37:47;;;;;;;0.60;0.60;;;;;;;;;;4981168;28;20054;-82
2022/03/18 01:40:13;;;;;;;0.60;0.60;;;;;;;;;;4981626;28;20854;-82
2022/03/18 01:42:40;;;;;;;0.60;0.60;;;;;;;;;;4982182;28;20822;-83
2022/03/18 01:45:06;;;;;;;0.60;0.60;;;;;;;;;;4981104;28;20125;-81
2022/03/18 01:47:32;;;;;;;0.98;0.98;;;;;;;;;;4982184;28;20101;-81
2022/03/18 01:49:59;;;;;;;0.50;0.50;;;;;;;;;;4980779;28;20025;-81
2022/03/18 01:52:25;;;;;;;0.60;0.60;;;;;;;;;;4980646;28;20030;-81
2022/03/18 01:54:52;;;;;;;0.70;0.70;;;;;;;;;;4981667;28;20034;-81
2022/03/18 01:57:20;;;;;;;0.60;0.60;;;;;;;;;;4980667;28;20058;-81
2022/03/18 01:59:46;;;;;;;0.55;0.55;;;;;;;;;;4982059;28;20572;-83
2022/03/18 02:02:13;;;;;;;0.60;0.60;;;;;;;;;;4981495;28;20030;-80
2022/03/18 02:04:40;;;;;;;0.60;0.60;;;;;;;;;;4979894;28;20038;-80
2022/03/18 02:07:06;;;;;;;0.50;0.50;;;;;;;;;;4981888;28;20024;-82
2022/03/18 02:09:32;;;;;;;0.53;0.53;;;;;;;;;;4979619;28;20053;-82
2022/03/18 02:11:59;;;;;;;0.57;0.57;;;;;;;;;;4980276;28;20022;-81
2022/03/18 02:14:34;;;;;;;0.52;0.52;;;;;;;;;;4981613;28;20035;-83
2022/03/18 02:17:01;;;;;;;0.50;0.50;;;;;;;;;;4981631;28;20026;-83
2022/03/18 02:19:28;;;;;;;0.80;0.80;;;;;;;;;;4978074;28;20474;-82
2022/03/18 02:21:55;;;;;;;0.70;0.70;;;;;;;;;;4979829;28;20049;-82
2022/03/18 02:24:21;;;;;;;0.70;0.70;;;;;;;;;;4980498;28;20045;-82
2022/03/18 02:26:49;;;;;;;0.60;0.60;;;;;;;;;;4980261;28;20038;-82
2022/03/18 02:29:35;;;;;;;0.60;0.60;;;;;;;;;;4981583;28;20038;-82
2022/03/18 02:32:21;;;;;;;0.60;0.60;;;;;;;;;;4982074;28;20030;-82
2022/03/18 02:34:47;;;;;;;0.50;0.50;;;;;;;;;;4981577;28;20034;-82
2022/03/18 02:37:13;;;;;;;0.50;0.50;;;;;;;;;;4978662;28;20049;-82
2022/03/18 02:39:40;;;;;;;0.60;0.60;;;;;;;;;;4976873;28;20137;-83
2022/03/18 02:42:06;;;;;;;0.63;0.63;;;;;;;;;;4980583;28;20041;-83
2022/03/18 02:44:32;;;;;;;0.90;0.90;;;;;;;;;;4981892;28;20046;-82
2022/03/18 02:46:58;;;;;;;0.60;0.60;;;;;;;;;;4983230;28;20788;-82
2022/03/18 02:49:25;;;;;;;0.60;0.60;;;;;;;;;;4984348;28;20402;-82
2022/03/18 02:51:52;;;;;;;0.68;0.68;;;;;;;;;;4984181;28;20042;-83
2022/03/18 02:54:18;;;;;;;0.68;0.68;;;;;;;;;;4984584;28;20525;-83
2022/03/18 02:56:44;;;;;;;0.60;0.60;;;;;;;;;;4986438;28;20034;-82
2022/03/18 02:59:10;;;;;;;0.50;0.50;;;;;;;;;;4983682;28;20074;-82
2022/03/18 03:01:36;;;;;;;0.60;0.60;;;;;;;;;;4982722;28;20125;-83
2022/03/18 03:04:02;;;;;;;0.60;0.60;;;;;;;;;;4984213;28;20050;-82
2022/03/18 03:09:16;;;;;;;0.52;0.52;;;;;;;;;;4983751;28;20057;-83
2022/03/18 03:11:42;;;;;;;0.60;0.60;;;;;;;;;;4983832;28;20117;-83
2022/03/18 03:14:08;;;;;;;1.23;1.23;;;;;;;;;;4983968;28;20068;-83
2022/03/18 03:16:35;;;;;;;0.60;0.60;;;;;;;;;;4982888;28;20038;-84
2022/03/18 03:19:02;;;;;;;0.77;0.77;;;;;;;;;;4987029;28;20517;-83
2022/03/18 03:21:28;;;;;;;0.70;0.70;;;;;;;;;;4986309;28;20290;-83
2022/03/18 03:23:55;;;;;;;0.60;0.60;;;;;;;;;;4985029;28;20114;-83
2022/03/18 03:26:21;;;;;;;0.52;0.52;;;;;;;;;;4987155;28;20030;-83
2022/03/18 03:28:47;;;;;;;0.60;0.60;;;;;;;;;;4985586;28;20089;-83
2022/03/18 03:31:13;;;;;;;0.50;0.50;;;;;;;;;;4984832;28;20030;-83
2022/03/18 03:33:39;;;;;;;0.60;0.60;;;;;;;;;;4986434;28;20072;-83
2022/03/18 03:36:05;;;;;;;0.63;0.63;;;;;;;;;;4986388;28;20574;-82
2022/03/18 03:38:32;;;;;;;0.47;0.47;;;;;;;;;;4985498;28;20105;-84
2022/03/18 03:40:58;;;;;;;1.42;1.42;;;;;;;;;;4983298;28;20421;-85
2022/03/18 03:43:24;;;;;;;0.70;0.70;;;;;;;;;;4983209;28;20027;-84
2022/03/18 03:45:50;;;;;;;0.60;0.60;;;;;;;;;;4983219;28;20037;-85
2022/03/18 03:48:16;;;;;;;0.77;0.77;;;;;;;;;;4985596;28;20573;-84
2022/03/18 03:50:42;;;;;;;0.60;0.60;;;;;;;;;;4984806;28;20101;-84
2022/03/18 03:53:09;;;;;;;0.60;0.60;;;;;;;;;;4982776;28;20034;-87
2022/03/18 03:55:38;;;;;;;0.60;0.60;;;;;;;;;;4982734;28;20065;-85
2022/03/18 03:58:05;;;;;;;0.55;0.55;;;;;;;;;;4982740;28;20026;-85
2022/03/18 04:00:31;;;;;;;;;;;;;;;;;;4982308;28;20069;-86
2022/03/18 04:02:57;;;;;;;0.60;0.60;;;;;;;;;;4984834;28;19941;-84
2022/03/18 04:05:23;;;;;;;0.70;0.70;;;;;;;;;;4984535;28;20034;-85
2022/03/18 04:07:49;;;;;;;0.60;0.60;;;;;;;;;;4982142;28;20066;-82
2022/03/18 04:10:16;;;;;;;1.13;1.13;;;;;;;;;;4984635;28;20197;-83
2022/03/18 04:12:43;;;;;;;1.00;1.00;;;;;;;;;;4981073;28;20121;-82
2022/03/18 04:15:09;;;;;;;;;;;;;;;;;;4981182;28;20037;-82
2022/03/18 04:17:43;;;;;;;0.55;0.55;;;;;;;;;;4981943;28;20333;-80
2022/03/18 04:20:09;;;;;;;0.55;0.55;;;;;;;;;;4980255;28;20137;-81
2022/03/18 04:22:36;;;;;;;0.60;0.60;;;;;;;;;;4982890;28;20093;-82
2022/03/18 04:25:03;;;;;;;0.68;0.68;;;;;;;;;;4981052;28;20461;-81
2022/03/18 04:27:29;;;;;;;0.60;0.60;;;;;;;;;;4981254;28;20116;-81
2022/03/18 04:29:55;;;;;;;0.50;0.50;;;;;;;;;;4974596;28;20034;-81
2022/03/18 04:32:21;;;;;;;0.50;0.50;;;;;;;;;;4983622;28;20097;-82
2022/03/18 04:34:47;;;;;;;1.05;1.05;;;;;;;;;;4982142;28;20509;-82
2022/03/18 04:37:13;;;;;;;0.75;0.75;;;;;;;;;;4973528;28;20062;-82
2022/03/18 04:39:39;;;;;;;0.60;0.60;;;;;;;;;;4981318;28;20030;-82
2022/03/18 04:42:05;;;;;;;0.70;0.70;;;;;;;;;;4982288;28;20034;-82
2022/03/18 04:44:31;;;;;;;0.60;0.60;;;;;;;;;;4983761;28;20121;-81
2022/03/18 04:46:57;;;;;;;0.70;0.70;;;;;;;;;;4981867;28;20053;-82
2022/03/18 04:49:24;;;;;;;0.60;0.60;;;;;;;;;;4981777;28;20135;-82
2022/03/18 04:51:50;;;;;;;0.60;0.60;;;;;;;;;;4981843;28;20034;-82
2022/03/18 04:54:16;;;;;;;0.65;0.65;;;;;;;;;;4981885;28;20038;-84
2022/03/18 04:59:26;;;;;;;0.50;0.50;;;;;;;;;;4980309;28;20543;-85
2022/03/18 05:01:52;;;;;;;0.70;0.70;;;;;;;;;;4969004;28;20733;-84
2022/03/18 05:04:18;;;;;;;1.43;1.43;;;;;;;;;;4981034;28;20097;-83
2022/03/18 05:07:16;;;;;;;0.70;0.70;;;;;;;;;;4983552;28;20104;-82
2022/03/18 05:09:42;;;;;;;0.50;0.50;;;;;;;;;;4982052;28;20061;-83
2022/03/18 05:12:09;;;;;;;0.60;0.60;;;;;;;;;;4982507;28;20126;-83
2022/03/18 05:14:35;;;;;;;;;;;;;;;;;;4985363;28;20111;-83
2022/03/18 05:17:02;;;;;;;0.40;0.40;;;;;;;;;;4979958;28;20452;-82
2022/03/18 05:19:28;;;;;;;0.40;0.40;;;;;;;;;;4981455;28;20414;-82
2022/03/18 05:21:55;;;;;;;0.50;0.50;;;;;;;;;;4981220;28;20579;-82
2022/03/18 05:24:21;;;;;;;0.70;0.70;;;;;;;;;;4979395;28;20030;-83
2022/03/18 05:26:47;;;;;;;0.50;0.50;;;;;;;;;;4982314;28;20034;-82
2022/03/18 05:29:16;;;;;;;0.65;0.65;;;;;;;;;;4983648;28;20046;-84
2022/03/18 05:31:43;;;;;;;0.65;0.65;;;;;;;;;;4980602;28;20034;-81
2022/03/18 05:34:09;;;;;;;0.80;0.80;;;;;;;;;;4978174;28;20060;-82
2022/03/18 05:36:35;;;;;;;1.33;1.33;;;;;;;;;;4964690;28;20034;-82
2022/03/18 05:39:18;;;;;;;0.70;0.70;;;;;;;;;;4982022;28;20051;-83
2022/03/18 05:41:44;;;;;;;0.60;0.60;;;;;;;;;;4980325;28;20038;-83
2022/03/18 05:44:11;;;;;;;0.53;0.53;;;;;;;;;;4979884;28;20030;-84
2022/03/18 05:46:37;;;;;;;0.60;0.60;;;;;;;;;;4977498;28;20073;-84
2022/03/18 05:49:03;;;;;;;0.50;0.50;;;;;;;;;;4977881;28;20062;-85
2022/03/18 05:51:30;;;;;;;0.60;0.60;;;;;;;;;;4977452;28;20045;-84
2022/03/18 05:53:56;;;;;;;0.50;0.50;;;;;;;;;;4978605;28;20046;-86
2022/03/18 05:59:13;;;;;;;0.70;0.70;;;;;;;;;;4977643;28;20044;-84
2022/03/18 06:01:40;;;;;;;0.70;0.70;;;;;;;;;;4965838;28;20034;-82
2022/03/18 06:04:10;;;;;;;0.80;0.80;;;;;;;;;;4975552;28;20417;-84
2022/03/18 06:06:39;;;;;;;0.95;0.95;;;;;;;;;;4979105;28;20042;-90
2022/03/18 06:11:54;;;;;;;0.60;0.60;;;;;;;;;;4981424;28;20126;-92
2022/03/18 06:14:20;;;;;;;0.40;0.40;;;;;;;;;;4983042;28;20494;-89
2022/03/18 06:16:51;;;;;;;0.70;0.70;;;;;;;;;;4979015;28;20057;-89
2022/03/18 06:19:18;;;;;;;0.60;0.60;;;;;;;;;;4984085;28;20030;-89
2022/03/18 06:21:47;;;;;;;0.40;0.40;;;;;;;;;;4981173;28;20030;-89
2022/03/18 06:24:13;;;;;;;0.50;0.50;;;;;;;;;;4983517;28;20114;-91
2022/03/18 06:26:40;;;;;;;0.60;0.60;;;;;;;;;;4982412;28;20121;-82
2022/03/18 06:29:06;;;;;;;0.63;0.63;;;;;;;;;;4980312;28;20037;-82
2022/03/18 06:31:33;;;;;;;0.90;0.90;;;;;;;;;;4982224;28;20034;-80
2022/03/18 06:33:59;;;;;;;0.60;0.60;;;;;;;;;;4983059;28;20023;-81
2022/03/18 06:36:25;;;;;;;0.73;0.73;;;;;;;;;;4983161;28;20057;-81
2022/03/18 06:38:52;;;;;;;0.60;0.60;;;;;;;;;;4984358;28;20035;-83
2022/03/18 06:41:19;;;;;;;0.53;0.53;;;;;;;;;;4985444;28;20096;-79
2022/03/18 06:43:46;;;;;;;0.60;0.60;;;;;;;;;;4982661;28;20278;-80
2022/03/18 06:46:12;;;;;;;0.60;0.60;;;;;;;;;;4981028;28;20034;-78
2022/03/18 06:48:38;;;;;;;0.60;0.60;;;;;;;;;;4983045;28;20034;-80
2022/03/18 06:51:04;;;;;;;0.53;0.53;;;;;;;;;;4983750;28;20052;-79
2022/03/18 06:53:30;;;;;;;0.77;0.77;;;;;;;;;;4986004;28;20034;-79
2022/03/18 06:55:56;;;;;;;0.82;0.82;;;;;;;;;;4984069;28;20038;-80
2022/03/18 06:58:22;;;;;;;0.70;0.70;;;;;;;;;;4978709;28;20116;-79
2022/03/18 07:00:48;;;;;;;0.70;0.70;;;;;;;;;;4982552;28;20045;-79
2022/03/18 07:03:14;;;;;;;0.60;0.60;;;;;;;;;;4982786;28;20031;-80
2022/03/18 07:05:40;;;;;;;0.60;0.60;;;;;;;;;;4984495;28;20044;-80
2022/03/18 07:08:06;;;;;;;0.68;0.68;;;;;;;;;;4984094;28;20513;-88
2022/03/18 07:10:32;;;;;;;0.60;0.60;;;;;;;;;;4982470;28;20054;-89
2022/03/18 07:12:58;;;;;;;0.60;0.60;;;;;;;;;;4982960;28;20781;-89
2022/03/18 07:15:24;;;;;;;1.37;1.37;;;;;;;;;;4986027;28;20023;-88
2022/03/18 07:17:59;;;;;;;0.75;0.75;;;;;;;;;;4984882;28;20022;-89
2022/03/18 07:20:36;;;;;;;0.73;0.73;;;;;;;;;;4987787;28;20415;-86
2022/03/18 07:23:03;;;;;;;0.70;0.70;;;;;;;;;;4984672;28;20037;-89
2022/03/18 07:25:30;;;;;;;0.68;0.68;;;;;;;;;;4984506;28;20034;-89
2022/03/18 07:27:56;;;;;;;0.60;0.60;;;;;;;;;;4986777;28;20611;-85
2022/03/18 07:30:22;;;;;;;0.60;0.60;;;;;;;;;;4985124;28;20034;-89
2022/03/18 07:32:48;;;;;;;1.50;1.50;;;;;;;;;;4983120;28;20572;-88
2022/03/18 07:35:14;;;;;;;0.80;0.80;;;;;;;;;;4970338;28;20129;-89
2022/03/18 07:37:41;;;;;;;0.80;0.80;;;;;;;;;;4979859;28;20164;-88
2022/03/18 07:40:08;;;;;;;0.60;0.60;;;;;;;;;;4983563;28;20054;-89
2022/03/18 07:42:42;;;;;;;0.70;0.70;;;;;;;;;;4981095;28;20598;-88
2022/03/18 07:45:09;;;;;;;0.70;0.70;;;;;;;;;;4966467;28;20410;-88
2022/03/18 07:47:35;;;;;;;97.75;92.32;;;;;;;;;;4985834;28;20107;-85
2022/03/18 07:50:01;;;;;;;2.20;2.17;;;;;;;;;;4983534;28;20034;-89
2022/03/18 07:52:27;;;;;;;0.60;0.60;;;;;;;;;;4985337;28;20037;-89
2022/03/18 07:54:53;;;;;;;0.20;0.20;;;;;;;;;;4977373;28;20034;-89
2022/03/18 07:57:19;;;;;;;0.20;0.20;;;;;;;;;;4984424;28;20037;-89
2022/03/18 07:59:45;;;;;;;0.35;0.35;;;;;;;;;;4985361;28;20380;-89
2022/03/18 08:02:11;;;;;;;0.30;0.30;;;;;;;;;;4983936;28;20468;-89
2022/03/18 08:04:37;;;;;;;0.40;0.40;;;;;;;;;;4982814;28;20549;-89
2022/03/18 08:07:04;;;;;;;0.50;0.50;;;;;;;;;;4982894;28;20145;-90
2022/03/18 08:09:30;;;;;;;0.47;0.47;;;;;;;;;;4983926;28;20902;-90
2022/03/18 08:11:56;;;;;;;0.40;0.40;;;;;;;;;;4984208;28;20117;-90
2022/03/18 08:14:23;;;;;;;0.57;0.57;;;;;;;;;;4985317;28;20029;-89
2022/03/18 08:16:49;;;;;;;0.30;0.30;;;;;;;;;;4984674;28;20497;-89
2022/03/18 08:19:15;;;;;;;0.40;0.40;;;;;;;;;;4984167;28;20113;-90
2022/03/18 08:21:41;;;;;;;0.20;0.20;;;;;;;;;;4971729;28;20043;-89
2022/03/18 08:24:08;;;;;;;0.20;0.20;;;;;;;;;;4984752;28;20026;-89
2022/03/18 08:26:37;;;;;;;0.40;0.40;;;;;;;;;;4984923;28;20044;-89
2022/03/18 08:29:04;;;;;;;0.40;0.40;;;;;;;;;;4983796;28;20026;-90
2022/03/18 08:31:30;;;;;;;0.45;0.45;;;;;;;;;;4982358;28;20577;-89
2022/03/18 08:33:56;;;;;;;0.37;0.37;;;;;;;;;;4983568;28;20069;-89
2022/03/18 08:36:23;;;;;;;0.50;0.50;;;;;;;;;;4983359;28;20788;-89
2022/03/18 08:38:49;;;;;;;0.40;0.40;;;;;;;;;;4983483;28;20513;-90
2022/03/18 08:41:15;;;;;;;0.40;0.40;;;;;;;;;;4984377;28;20784;-89
2022/03/18 08:43:41;;;;;;;0.60;0.60;;;;;;;;;;4983267;28;20030;-89
2022/03/18 08:46:07;;;;;;;0.50;0.50;;;;;;;;;;4982154;28;20034;-89
2022/03/18 08:48:33;;;;;;;0.50;0.50;;;;;;;;;;4984072;28;20022;-89
2022/03/18 08:50:59;;;;;;;0.30;0.30;;;;;;;;;;4982941;28;20317;-89
2022/03/18 08:53:25;;;;;;;0.80;0.80;;;;;;;;;;4982482;28;20030;-90
2022/03/18 08:55:51;;;;;;;0.70;0.70;;;;;;;;;;4981487;28;20553;-89
2022/03/18 08:58:17;;;;;;;0.97;0.97;;;;;;;;;;4983024;28;20117;-89
2022/03/18 09:00:43;;;;;;;0.60;0.60;;;;;;;;;;4982305;28;20046;-89
2022/03/18 09:03:09;;;;;;;0.50;0.50;;;;;;;;;;4980860;28;20030;-89
2022/03/18 09:05:35;;;;;;;0.65;0.65;;;;;;;;;;4983067;28;20038;-89
2022/03/18 09:08:01;;;;;;;0.10;0.10;;;;;;;;;;4983524;28;20038;-89
2022/03/18 09:10:27;;;;;;;0.20;0.20;;;;;;;;;;4983475;28;20552;-89
2022/03/18 09:13:01;;;;;;;0.10;0.10;;;;;;;;;;4982298;28;20425;-90
2022/03/18 09:15:28;;;;;;;0.10;0.10;;;;;;;;;;4981351;28;20057;-89
2022/03/18 09:17:55;;;;;;;0.20;0.20;;;;;;;;;;4982687;28;20573;-89
2022/03/18 09:20:21;;;;;;;0.20;0.20;;;;;;;;;;4982660;28;20046;-90
2022/03/18 09:22:47;;;;;;;0.30;0.30;;;;;;;;;;4980558;28;20033;-89
2022/03/18 09:25:17;;;;;;;0.30;0.30;;;;;;;;;;4980690;28;20041;-90
2022/03/18 09:27:43;;;;;;;0.45;0.45;;;;;;;;;;4981789;28;20026;-90
2022/03/18 09:30:11;;;;;;;0.32;0.32;;;;;;;;;;4983056;28;20247;-89
2022/03/18 09:32:38;;;;;;;0.30;0.30;;;;;;;;;;4983363;28;20030;-89
2022/03/18 09:35:05;;;;;;;0.22;0.22;;;;;;;;;;4982091;28;20114;-88
2022/03/18 09:37:31;;;;;;;;;;;;;;;;;;4982271;28;20410;-90
2022/03/18 09:39:57;;;;;;;0.10;0.10;;;;;;;;;;4981547;28;19921;-88
2022/03/18 09:42:23;;;;;;;0.20;0.20;;;;;;;;;;4980580;28;20042;-89
2022/03/18 09:44:49;;;;;;;0.13;0.13;;;;;;;;;;4981707;28;20457;-89
2022/03/18 09:47:16;;;;;;;0.10;0.10;;;;;;;;;;4983726;28;20277;-89
2022/03/18 09:49:45;;;;;;;0.10;0.10;;;;;;;;;;4981247;28;20687;-89
2022/03/18 09:52:12;;;;;;;0.00;0.00;;;;;;;;;;4980070;28;20085;-89
2022/03/18 09:54:38;;;;;;;0.00;0.00;;;;;;;;;;4980393;28;20049;-90
2022/03/18 09:57:04;;;;;;;0.05;0.05;;;;;;;;;;4981995;28;20104;-89
2022/03/18 09:59:31;;;;;;;0.00;0.00;;;;;;;;;;4987659;28;20149;-90
2022/03/18 10:02:15;;;;;;;1.38;0.75;;;;;;;;;;4984773;28;20122;-90
2022/03/18 10:04:55;;;;;;;2.03;0.80;;;;;;;;;;4985894;28;20030;-89
2022/03/18 10:07:21;;;;;;;2.08;0.85;;;;;;;;;;4984659;28;20541;-90
2022/03/18 10:09:48;;;;;;;0.40;0.40;;;;;;;;;;4989110;28;20599;-89
2022/03/18 10:12:29;;;;;;;0.10;0.10;;;;;;;;;;4988784;28;20037;-89
2022/03/18 10:15:14;;;;;;;0.60;0.60;;;;;;;;;;4987739;28;20039;-90
2022/03/18 10:17:41;;;;;;;0.20;0.20;;;;;;;;;;4986878;28;20038;-89
2022/03/18 10:20:08;;;;;;;0.43;0.30;;;;;;;;;;4985800;28;20470;-89
2022/03/18 10:22:36;;;;;;;;;;;;;;;;;;4984743;28;20069;-89
2022/03/18 10:25:03;;;;;;;0.50;0.40;;;;;;;;;;4984044;28;19922;-88
2022/03/18 10:27:29;;;;;;;2.03;1.10;;;;;;;;;;4983342;28;20469;-89
2022/03/18 10:29:56;;;;;;;0.43;0.43;;;;;;;;;;4985115;28;20058;-89
2022/03/18 10:32:24;;;;;;;0.90;0.68;;;;;;;;;;4986471;28;20050;-89
2022/03/18 10:37:54;;;;;;;0.65;0.65;;;;;;;;;;4986598;28;20049;-88
2022/03/18 10:40:34;;;;;;;5.85;1.10;;;;;;;;;;4984485;28;20030;-89
2022/03/18 10:43:01;;;;;;;1.60;0.73;;;;;;;;;;4976389;28;20121;-89
2022/03/18 10:45:27;;;;;;;2.28;1.10;;;;;;;;;;4983640;28;20040;-89
2022/03/18 10:47:53;;;;;;;0.80;0.75;;;;;;;;;;4984812;28;20822;-88
2022/03/18 10:50:21;;;;;;;0.40;0.40;;;;;;;;;;4986618;28;20044;-89
2022/03/18 10:52:47;;;;;;;1.33;0.60;;;;;;;;;;4982995;28;20296;-89
2022/03/18 10:55:20;;;;;;;0.40;0.40;;;;;;;;;;4985638;28;20030;-89
2022/03/18 10:57:50;;;;;;;2.47;0.82;;;;;;;;;;4981777;28;20042;-90
2022/03/18 11:00:17;;;;;;;0.20;0.20;;;;;;;;;;4982944;28;20034;-89
2022/03/18 11:02:43;;;;;;;0.80;0.80;;;;;;;;;;4985038;28;20137;-89
2022/03/18 11:05:10;;;;;;;0.30;0.30;;;;;;;;;;4983170;28;20814;-89
2022/03/18 11:07:41;;;;;;;0.17;0.17;;;;;;;;;;4985718;28;20034;-89
2022/03/18 11:12:54;;;;;;;0.57;0.57;;;;;;;;;;4982065;28;20097;-89
2022/03/18 11:15:20;;;;;;;0.50;0.50;;;;;;;;;;4984523;28;20289;-88
2022/03/18 11:17:47;;;;;;;0.17;0.17;;;;;;;;;;4983278;28;20038;-89
2022/03/18 11:20:14;;;;;;;5.13;0.95;;;;;;;;;;4983499;28;20042;-90
2022/03/18 11:22:40;;;;;;;0.60;0.60;;;;;;;;;;4983904;28;20535;-90
2022/03/18 11:25:09;;;;;;;0.20;0.20;;;;;;;;;;4982229;28;20053;-89
2022/03/18 11:27:41;;;;;;;3.08;1.23;;;;;;;;;;4985714;28;20027;-89
2022/03/18 11:30:19;;;;;;;0.73;0.70;;;;;;;;;;4985617;28;20030;-89
2022/03/18 11:33:04;;;;;;;0.80;0.65;;;;;;;;;;4984985;28;20688;-89
2022/03/18 11:35:50;;;;;;;0.60;0.38;;;;;;;;;;4981174;28;20489;-89
2022/03/18 11:38:17;;;;;;;0.88;0.73;;;;;;;;;;4985751;28;20497;-88
2022/03/18 11:40:53;;;;;;;0.25;0.25;;;;;;;;;;4982224;28;20038;-89
2022/03/18 11:43:48;;;;;;;0.35;0.20;;;;;;;;;;4979160;28;20121;-89
2022/03/18 11:46:14;;;;;;;2.43;0.97;;;;;;;;;;4978910;28;20037;-89
2022/03/18 11:48:46;;;;;;;0.52;0.52;;;;;;;;;;4983469;28;20130;-89
2022/03/18 11:51:29;;;;;;;0.93;0.45;;;;;;;;;;4983726;28;21632;-88
2022/03/18 11:53:55;;;;;;;0.45;0.43;;;;;;;;;;4981500;28;20031;-89
2022/03/18 11:56:22;;;;;;;1.35;1.15;;;;;;;;;;4985695;28;20054;-89
2022/03/18 11:58:48;;;;;;;0.43;0.43;;;;;;;;;;4983573;28;20039;-89
2022/03/18 12:01:33;;;;;;;0.40;0.40;;;;;;;;;;4983467;28;20045;-88
2022/03/18 12:03:59;;;;;;;0.98;0.68;;;;;;;;;;4983214;28;20022;-89
2022/03/18 12:06:25;;;;;;;0.10;0.10;;;;;;;;;;4983983;28;20145;-87
2022/03/18 12:08:51;;;;;;;0.70;0.70;;;;;;;;;;4983564;28;20042;-87
2022/03/18 12:11:28;;;;;;;1.07;1.07;;;;;;;;;;4984788;28;20077;-87
2022/03/18 12:13:54;;;;;;;0.93;0.68;;;;;;;;;;4982812;28;21213;-86
2022/03/18 12:16:21;;;;;;;0.38;0.30;;;;;;;;;;4982474;28;20031;-86
2022/03/18 12:18:47;;;;;;;0.95;0.75;;;;;;;;;;4982234;28;20046;-87
2022/03/18 12:21:14;;;;;;;0.35;0.35;;;;;;;;;;4981575;28;20045;-87
2022/03/18 12:23:40;;;;;;;1.55;0.68;;;;;;;;;;4986622;28;20406;-87
2022/03/18 12:26:07;;;;;;;2.33;0.40;;;;;;;;;;4982939;28;20521;-87
2022/03/18 12:28:49;;;;;;;0.32;0.32;;;;;;;;;;4981320;28;20867;-87
2022/03/18 12:31:15;;;;;;;0.35;0.35;;;;;;;;;;4981326;28;20038;-87
2022/03/18 12:33:42;;;;;;;0.20;0.20;;;;;;;;;;4982148;28;20038;-87
2022/03/18 12:36:08;;;;;;;0.50;0.30;;;;;;;;;;4980621;28;20039;-87
2022/03/18 12:38:35;;;;;;;0.30;0.25;;;;;;;;;;4984334;28;20063;-87
2022/03/18 12:41:01;;;;;;;0.10;0.10;;;;;;;;;;4982979;28;20108;-87
2022/03/18 12:43:31;;;;;;;0.73;0.73;;;;;;;;;;4981926;28;20537;-87
2022/03/18 12:45:57;;;;;;;0.10;0.10;;;;;;;;;;4982883;28;20296;-87
2022/03/18 12:48:23;;;;;;;0.47;0.47;;;;;;;;;;4982773;28;20113;-87
2022/03/18 12:50:50;;;;;;;2.55;1.02;;;;;;;;;;4982444;28;20030;-87
2022/03/18 12:53:20;;;;;;;0.65;0.65;;;;;;;;;;4982648;28;20047;-87
2022/03/18 12:55:49;;;;;;;1.30;1.10;;;;;;;;;;4981370;28;20045;-87
2022/03/18 12:58:15;;;;;;;4.15;1.13;;;;;;;;;;4980941;28;20490;-87
2022/03/18 13:00:42;;;;;;;0.60;0.60;;;;;;;;;;4981904;28;20046;-87
2022/03/18 13:03:16;;;;;;;0.30;0.30;;;;;;;;;;4982431;28;20026;-87
2022/03/18 13:05:42;;;;;;;1.15;1.05;;;;;;;;;;4983283;28;20092;-87
2022/03/18 13:08:09;;;;;;;1.73;1.10;;;;;;;;;;4981922;28;20073;-89
2022/03/18 13:10:36;;;;;;;3.03;0.70;;;;;;;;;;4982351;28;20054;-89
2022/03/18 13:13:09;;;;;;;0.30;0.30;;;;;;;;;;4982011;28;20026;-89
2022/03/18 13:15:35;;;;;;;6.13;0.93;;;;;;;;;;4982755;28;20034;-90
2022/03/18 13:18:15;;;;;;;0.30;0.30;;;;;;;;;;4982532;28;20027;-89
2022/03/18 13:20:42;;;;;;;0.52;0.30;;;;;;;;;;4980614;28;20038;-90
2022/03/18 13:23:09;;;;;;;4.28;1.00;;;;;;;;;;4982010;28;20061;-89
2022/03/18 13:25:36;;;;;;;0.00;0.00;;;;;;;;;;4979868;28;21900;-89
2022/03/18 13:28:03;;;;;;;0.20;0.20;;;;;;;;;;4980069;28;20720;-90
2022/03/18 13:33:16;;;;;;;0.10;0.10;;;;;;;;;;4977473;28;20054;-90
2022/03/18 13:35:45;;;;;;;3.30;1.88;;;;;;;;;;4981360;28;20172;-90
2022/03/18 13:38:15;;;;;;;0.25;0.25;;;;;;;;;;4981917;28;20811;-90
2022/03/18 13:40:59;;;;;;;0.20;0.20;;;;;;;;;;4980425;28;20038;-90
2022/03/18 13:43:45;;;;;;;0.22;0.22;;;;;;;;;;4979106;28;20031;-89
2022/03/18 13:46:16;;;;;;;3.85;1.35;;;;;;;;;;4975956;28;20041;-89
2022/03/18 13:48:42;;;;;;;0.20;0.20;;;;;;;;;;4980436;28;20938;-89
2022/03/18 13:51:09;;;;;;;4.88;2.17;;;;;;;;;;4979372;28;20035;-89
2022/03/18 13:53:36;;;;;;;0.52;0.52;;;;;;;;;;4983468;28;20579;-90
2022/03/18 13:56:16;;;;;;;2.47;1.33;;;;;;;;;;4980832;28;20121;-90
2022/03/18 13:58:43;;;;;;;0.47;0.45;;;;;;;;;;4980350;28;20034;-88
2022/03/18 14:01:10;;;;;;;3.72;1.65;;;;;;;;;;4978101;28;20042;-90
2022/03/18 14:03:36;;;;;;;38.85;2.60;;;;;;;;;;4982330;28;20105;-89
2022/03/18 14:06:03;;;;;;;0.45;0.45;;;;;;;;;;4974516;28;20413;-89
2022/03/18 14:08:30;;;;;;;0.75;0.70;;;;;;;;;;4983461;28;20069;-88
2022/03/18 14:11:00;;;;;;;0.13;0.13;;;;;;;;;;4979224;28;20030;-87
2022/03/18 14:13:30;;;;;;;9.30;2.13;;;;;;;;;;4979659;28;20029;-87
2022/03/18 14:15:57;;;;;;;1.48;0.35;;;;;;;;;;4972611;28;20112;-87
2022/03/18 14:18:23;;;;;;;3.20;1.92;;;;;;;;;;4981812;28;20034;-87
2022/03/18 14:20:52;;;;;;;0.30;0.30;;;;;;;;;;4980272;28;20065;-86
2022/03/18 14:23:20;;;;;;;0.52;0.25;;;;;;;;;;4981355;28;20054;-87
2022/03/18 14:25:47;;;;;;;0.28;0.28;;;;;;;;;;4980588;28;20038;-87
2022/03/18 14:28:17;;;;;;;0.75;0.75;;;;;;;;;;4981086;28;20026;-87
2022/03/18 14:30:43;;;;;;;0.52;0.52;;;;;;;;;;4979450;28;20058;-87
2022/03/18 14:33:09;;;;;;;0.88;0.57;;;;;;;;;;4982079;28;20041;-87
2022/03/18 14:35:35;;;;;;;1.85;0.52;;;;;;;;;;4983211;28;20035;-88
2022/03/18 14:38:02;;;;;;;0.63;0.40;;;;;;;;;;4980979;28;20030;-88
2022/03/18 14:40:27;;;;;;;0.10;0.10;;;;;;;;;;4980500;28;20040;-88
2022/03/18 14:42:53;;;;;;;0.00;0.00;;;;;;;;;;4980064;28;20041;-88
2022/03/18 14:45:20;;;;;;;0.47;0.47;;;;;;;;;;4982526;28;20090;-88
2022/03/18 14:47:47;;;;;;;5.28;1.02;;;;;;;;;;4985661;28;20042;-88
2022/03/18 14:50:14;;;;;;;0.13;0.13;;;;;;;;;;4985706;28;20027;-88
2022/03/18 14:52:40;;;;;;;27.92;2.72;;;;;;;;;;4982356;28;20049;-87
2022/03/18 14:57:52;;;;;;;0.10;0.10;;;;;;;;;;4981766;28;20568;-88
2022/03/18 15:00:19;;;;;;;0.32;0.32;;;;;;;;;;4985093;28;20101;-87
2022/03/18 15:02:45;;;;;;;3.67;2.05;;;;;;;;;;4983364;28;20042;-88
2022/03/18 15:05:11;;;;;;;3.17;1.20;;;;;;;;;;4984091;28;20065;-87
2022/03/18 15:07:38;;;;;;;0.50;0.50;;;;;;;;;;4977662;28;20146;-87
2022/03/18 15:10:06;;;;;;;1.75;0.98;;;;;;;;;;4984459;28;20624;-87
2022/03/18 15:12:32;;;;;;;2.00;1.20;;;;;;;;;;4983499;28;20045;-88
2022/03/18 15:14:58;;;;;;;0.20;0.20;;;;;;;;;;4985173;28;20038;-88
2022/03/18 15:17:24;;;;;;;0.60;0.60;;;;;;;;;;4985824;28;20030;-87